createdAt,value
2023-04-28T00:00:11.574Z,84.36
2023-04-28T00:01:11.553Z,84.36
2023-04-28T00:02:11.544Z,84.25
2023-04-28T00:03:11.765Z,84.46
2023-04-28T00:04:11.894Z,84.25
2023-04-28T00:05:11.605Z,83.94
2023-04-28T00:06:11.512Z,83.84
2023-04-28T00:07:11.457Z,84.36
2023-04-28T00:08:11.441Z,84.15
2023-04-28T00:09:11.490Z,84.36
2023-04-28T00:10:11.412Z,84.36
2023-04-28T00:11:11.407Z,84.36
2023-04-28T00:12:11.433Z,84.36
2023-04-28T00:13:11.395Z,84.15
2023-04-28T00:14:11.407Z,84.36
2023-04-28T00:15:11.356Z,84.46
2023-04-28T00:16:11.465Z,84.67
2023-04-28T00:17:11.404Z,84.88
2023-04-28T00:18:11.408Z,84.98
2023-04-28T00:19:11.305Z,85.39
2023-04-28T00:20:11.293Z,85.29
2023-04-28T00:21:11.292Z,84.98
2023-04-28T00:22:11.272Z,84.77
2023-04-28T00:23:11.265Z,85.19
2023-04-28T00:24:11.247Z,85.08
2023-04-28T00:25:11.242Z,85.19
2023-04-28T00:26:11.224Z,85.29
2023-04-28T00:27:11.226Z,85.19
2023-04-28T00:28:12.766Z,85.08
2023-04-28T00:29:11.186Z,84.98
2023-04-28T00:30:11.172Z,84.88
2023-04-28T00:31:11.202Z,84.77
2023-04-28T00:32:11.226Z,84.70
2023-04-28T00:33:11.190Z,84.60
2023-04-28T00:34:11.120Z,85.02
2023-04-28T00:35:11.097Z,85.33
2023-04-28T00:36:11.109Z,85.36
2023-04-28T00:37:11.074Z,85.57
2023-04-28T00:38:11.064Z,85.57
2023-04-28T00:39:11.047Z,85.99
2023-04-28T00:40:11.036Z,86.51
2023-04-28T00:41:11.113Z,86.61
2023-04-28T00:42:11.003Z,86.51
2023-04-28T00:43:11.009Z,86.41
2023-04-28T00:44:10.997Z,86.30
2023-04-28T00:45:10.967Z,86.19
2023-04-28T00:46:10.978Z,86.13
2023-04-28T00:47:10.930Z,86.55
2023-04-28T00:48:10.939Z,86.86
2023-04-28T00:49:10.923Z,87.07
2023-04-28T00:50:10.921Z,86.96
2023-04-28T00:51:10.888Z,86.76
2023-04-28T00:52:10.883Z,86.76
2023-04-28T00:53:10.866Z,86.86
2023-04-28T00:54:10.850Z,86.86
2023-04-28T00:55:10.827Z,86.76
2023-04-28T00:56:10.834Z,86.65
2023-04-28T00:57:10.829Z,86.76
2023-04-28T00:58:10.792Z,86.72
2023-04-28T00:59:10.785Z,86.51
2023-04-28T01:00:10.782Z,85.99
2023-04-28T01:01:10.838Z,85.99
2023-04-28T01:02:10.742Z,85.99
2023-04-28T01:03:10.873Z,85.72
2023-04-28T01:04:10.914Z,85.99
2023-04-28T01:05:10.726Z,86.13
2023-04-28T01:06:10.722Z,86.13
2023-04-28T01:07:10.716Z,85.93
2023-04-28T01:08:10.690Z,85.93
2023-04-28T01:09:10.661Z,86.24
2023-04-28T01:10:10.663Z,86.24
2023-04-28T01:11:10.639Z,86.24
2023-04-28T01:12:10.622Z,86.44
2023-04-28T01:13:10.630Z,86.55
2023-04-28T01:14:10.601Z,86.69
2023-04-28T01:15:10.590Z,86.80
2023-04-28T01:16:10.618Z,87.01
2023-04-28T01:17:10.624Z,87.01
2023-04-28T01:18:10.624Z,87.01
2023-04-28T01:19:10.545Z,87.11
2023-04-28T01:20:10.534Z,87.32
2023-04-28T01:21:10.495Z,87.52
2023-04-28T01:22:10.505Z,87.42
2023-04-28T01:23:10.488Z,87.42
2023-04-28T01:24:10.476Z,87.52
2023-04-28T01:25:10.452Z,87.63
2023-04-28T01:26:10.452Z,87.48
2023-04-28T01:27:10.450Z,87.17
2023-04-28T01:28:10.411Z,86.86
2023-04-28T01:29:10.435Z,86.55
2023-04-28T01:30:10.402Z,86.55
2023-04-28T01:31:10.430Z,86.34
2023-04-28T01:32:10.398Z,86.13
2023-04-28T01:33:10.428Z,86.24
2023-04-28T01:34:10.332Z,86.65
2023-04-28T01:35:10.349Z,86.86
2023-04-28T01:36:10.326Z,86.86
2023-04-28T01:37:10.337Z,87.11
2023-04-28T01:38:10.304Z,87.21
2023-04-28T01:39:10.305Z,87.42
2023-04-28T01:40:10.283Z,87.52
2023-04-28T01:41:10.274Z,87.25
2023-04-28T01:42:10.247Z,87.77
2023-04-28T01:43:10.274Z,88.33
2023-04-28T01:44:10.227Z,88.96
2023-04-28T01:45:10.215Z,89.48
2023-04-28T01:46:10.257Z,89.64
2023-04-28T01:47:10.185Z,89.23
2023-04-28T01:48:10.215Z,89.02
2023-04-28T01:49:10.157Z,88.81
2023-04-28T01:50:10.143Z,88.60
2023-04-28T01:51:10.141Z,88.60
2023-04-28T01:52:10.127Z,88.60
2023-04-28T01:53:10.105Z,88.60
2023-04-28T01:54:10.101Z,88.60
2023-04-28T01:55:10.092Z,88.71
2023-04-28T01:56:10.073Z,88.92
2023-04-28T01:57:10.060Z,88.71
2023-04-28T01:58:10.054Z,88.60
2023-04-28T01:59:10.045Z,88.71
2023-04-28T02:00:10.022Z,89.02
2023-04-28T02:01:10.046Z,88.77
2023-04-28T02:02:09.996Z,88.56
2023-04-28T02:03:10.101Z,88.46
2023-04-28T02:04:10.117Z,88.15
2023-04-28T02:05:09.953Z,88.04
2023-04-28T02:06:09.933Z,88.15
2023-04-28T02:07:09.947Z,88.25
2023-04-28T02:08:09.918Z,88.04
2023-04-28T02:09:09.938Z,88.04
2023-04-28T02:10:09.904Z,87.84
2023-04-28T02:11:09.875Z,87.84
2023-04-28T02:12:09.872Z,87.94
2023-04-28T02:13:09.863Z,88.00
2023-04-28T02:14:09.844Z,88.00
2023-04-28T02:15:09.848Z,87.90
2023-04-28T02:16:09.838Z,88.10
2023-04-28T02:17:09.799Z,88.00
2023-04-28T02:18:09.809Z,87.79
2023-04-28T02:19:09.782Z,87.59
2023-04-28T02:20:09.785Z,87.38
2023-04-28T02:21:09.764Z,87.17
2023-04-28T02:22:09.755Z,87.13
2023-04-28T02:23:09.766Z,87.13
2023-04-28T02:24:09.711Z,86.93
2023-04-28T02:25:09.695Z,87.24
2023-04-28T02:26:09.691Z,87.13
2023-04-28T02:27:09.675Z,86.82
2023-04-28T02:28:09.656Z,86.41
2023-04-28T02:29:09.671Z,86.19
2023-04-28T02:30:09.643Z,86.30
2023-04-28T02:31:09.724Z,86.30
2023-04-28T02:32:09.603Z,86.41
2023-04-28T02:33:09.672Z,86.41
2023-04-28T02:34:09.617Z,86.09
2023-04-28T02:35:09.576Z,85.88
2023-04-28T02:36:09.599Z,85.88
2023-04-28T02:37:09.554Z,86.09
2023-04-28T02:38:09.528Z,86.09
2023-04-28T02:39:09.547Z,86.09
2023-04-28T02:40:09.521Z,86.30
2023-04-28T02:41:09.550Z,86.30
2023-04-28T02:42:09.491Z,86.30
2023-04-28T02:43:09.480Z,86.09
2023-04-28T02:44:09.454Z,86.19
2023-04-28T02:45:09.456Z,86.41
2023-04-28T02:46:09.471Z,86.44
2023-04-28T02:47:09.545Z,86.76
2023-04-28T02:48:09.452Z,86.55
2023-04-28T02:49:09.390Z,86.30
2023-04-28T02:50:09.408Z,86.09
2023-04-28T02:51:09.386Z,86.34
2023-04-28T02:52:09.349Z,86.44
2023-04-28T02:53:09.341Z,86.03
2023-04-28T02:54:09.346Z,86.24
2023-04-28T02:55:09.370Z,86.34
2023-04-28T02:56:09.296Z,86.55
2023-04-28T02:57:09.315Z,86.76
2023-04-28T02:58:09.279Z,86.65
2023-04-28T02:59:09.278Z,86.41
2023-04-28T03:00:09.530Z,86.41
2023-04-28T03:01:09.309Z,86.30
2023-04-28T03:02:09.221Z,85.99
2023-04-28T03:03:16.767Z,85.88
2023-04-28T03:04:09.454Z,86.09
2023-04-28T03:05:09.209Z,85.99
2023-04-28T03:06:09.276Z,85.99
2023-04-28T03:07:09.189Z,86.09
2023-04-28T03:08:09.179Z,85.99
2023-04-28T03:09:09.193Z,85.78
2023-04-28T03:10:09.160Z,85.78
2023-04-28T03:11:09.118Z,86.19
2023-04-28T03:12:09.241Z,86.09
2023-04-28T03:13:09.133Z,85.99
2023-04-28T03:14:09.090Z,86.09
2023-04-28T03:15:09.102Z,85.88
2023-04-28T03:16:16.107Z,85.88
2023-04-28T03:17:09.068Z,86.09
2023-04-28T03:18:09.057Z,85.68
2023-04-28T03:19:09.039Z,85.68
2023-04-28T03:20:09.055Z,85.68
2023-04-28T03:21:09.012Z,85.68
2023-04-28T03:22:08.979Z,86.09
2023-04-28T03:23:08.984Z,85.57
2023-04-28T03:24:08.969Z,85.47
2023-04-28T03:25:09.022Z,85.26
2023-04-28T03:26:08.954Z,85.26
2023-04-28T03:27:09.075Z,85.26
2023-04-28T03:28:08.935Z,85.68
2023-04-28T03:29:08.934Z,86.09
2023-04-28T03:30:08.911Z,86.19
2023-04-28T03:31:08.879Z,85.88
2023-04-28T03:32:08.899Z,85.36
2023-04-28T03:33:08.917Z,85.57
2023-04-28T03:34:08.848Z,85.99
2023-04-28T03:35:08.831Z,86.09
2023-04-28T03:36:08.802Z,85.99
2023-04-28T03:37:08.836Z,85.78
2023-04-28T03:38:08.792Z,85.74
2023-04-28T03:39:08.828Z,85.74
2023-04-28T03:40:08.770Z,85.53
2023-04-28T03:41:08.811Z,85.12
2023-04-28T03:42:08.751Z,84.70
2023-04-28T03:43:08.768Z,84.50
2023-04-28T03:44:08.740Z,84.77
2023-04-28T03:45:08.712Z,84.88
2023-04-28T03:46:08.785Z,84.46
2023-04-28T03:47:08.704Z,84.15
2023-04-28T03:48:08.693Z,83.94
2023-04-28T03:49:08.667Z,83.63
2023-04-28T03:50:08.649Z,83.53
2023-04-28T03:51:08.660Z,83.84
2023-04-28T03:52:08.625Z,83.63
2023-04-28T03:53:08.609Z,83.63
2023-04-28T03:54:08.583Z,83.38
2023-04-28T03:55:08.605Z,83.07
2023-04-28T03:56:08.598Z,82.86
2023-04-28T03:57:08.577Z,82.97
2023-04-28T03:58:08.584Z,83.17
2023-04-28T03:59:08.583Z,83.28
2023-04-28T04:00:08.513Z,83.59
2023-04-28T04:01:08.512Z,83.69
2023-04-28T04:02:08.553Z,83.17
2023-04-28T04:03:08.609Z,83.07
2023-04-28T04:04:08.903Z,82.76
2023-04-28T04:05:08.660Z,82.34
2023-04-28T04:06:08.428Z,82.51
2023-04-28T04:07:08.440Z,82.20
2023-04-28T04:08:08.403Z,81.99
2023-04-28T04:09:08.405Z,81.68
2023-04-28T04:10:08.391Z,81.79
2023-04-28T04:11:08.383Z,81.48
2023-04-28T04:12:08.363Z,81.58
2023-04-28T04:13:08.331Z,81.16
2023-04-28T04:14:08.348Z,81.37
2023-04-28T04:15:08.356Z,81.79
2023-04-28T04:16:08.384Z,81.06
2023-04-28T04:17:08.315Z,80.58
2023-04-28T04:18:08.356Z,80.79
2023-04-28T04:19:08.314Z,81.30
2023-04-28T04:20:08.280Z,81.68
2023-04-28T04:21:08.259Z,81.37
2023-04-28T04:22:08.235Z,81.27
2023-04-28T04:23:08.256Z,80.65
2023-04-28T04:24:08.208Z,80.65
2023-04-28T04:25:08.208Z,80.65
2023-04-28T04:26:08.200Z,80.96
2023-04-28T04:27:08.176Z,80.44
2023-04-28T04:28:08.181Z,80.13
2023-04-28T04:29:08.153Z,80.02
2023-04-28T04:30:08.159Z,79.71
2023-04-28T04:31:08.173Z,80.44
2023-04-28T04:32:08.087Z,80.61
2023-04-28T04:33:08.139Z,80.51
2023-04-28T04:34:08.057Z,80.09
2023-04-28T04:35:08.075Z,79.78
2023-04-28T04:36:08.026Z,79.47
2023-04-28T04:37:08.070Z,79.37
2023-04-28T04:38:08.085Z,79.54
2023-04-28T04:39:08.030Z,79.54
2023-04-28T04:40:07.988Z,79.44
2023-04-28T04:41:08.019Z,79.13
2023-04-28T04:42:23.236Z,79.44
2023-04-28T04:43:09.005Z,78.61
2023-04-28T04:44:07.963Z,78.40
2023-04-28T04:45:07.942Z,78.47
2023-04-28T04:46:08.039Z,78.47
2023-04-28T04:47:07.893Z,78.16
2023-04-28T04:48:08.027Z,78.16
2023-04-28T04:49:07.917Z,78.16
2023-04-28T04:50:07.892Z,78.36
2023-04-28T04:51:07.859Z,78.05
2023-04-28T04:52:07.852Z,77.95
2023-04-28T04:53:10.584Z,77.74
2023-04-28T04:54:08.802Z,77.74
2023-04-28T04:55:07.813Z,78.26
2023-04-28T04:56:07.801Z,77.84
2023-04-28T04:57:07.840Z,77.64
2023-04-28T04:58:07.758Z,77.60
2023-04-28T04:59:07.782Z,77.64
2023-04-28T05:00:07.731Z,77.95
2023-04-28T05:01:07.751Z,77.84
2023-04-28T05:02:07.796Z,77.74
2023-04-28T05:03:07.944Z,78.05
2023-04-28T05:04:08.140Z,78.05
2023-04-28T05:05:19.703Z,78.05
2023-04-28T05:06:08.661Z,78.16
2023-04-28T05:07:07.665Z,78.47
2023-04-28T05:08:07.665Z,78.67
2023-04-28T05:09:07.637Z,79.09
2023-04-28T05:10:07.617Z,78.67
2023-04-28T05:11:07.641Z,78.64
2023-04-28T05:12:07.630Z,79.05
2023-04-28T05:13:07.570Z,79.05
2023-04-28T05:14:07.569Z,78.64
2023-04-28T05:15:07.571Z,78.39
2023-04-28T05:16:07.540Z,77.87
2023-04-28T05:17:07.698Z,77.77
2023-04-28T05:18:07.522Z,77.87
2023-04-28T05:19:07.503Z,77.84
2023-04-28T05:20:07.498Z,77.22
2023-04-28T05:21:07.496Z,76.81
2023-04-28T05:22:07.487Z,76.91
2023-04-28T05:23:09.172Z,76.60
2023-04-28T05:24:09.355Z,76.50
2023-04-28T05:25:09.052Z,76.36
2023-04-28T05:26:09.217Z,76.26
2023-04-28T05:27:08.885Z,76.26
2023-04-28T05:28:09.079Z,76.32
2023-04-28T05:29:09.252Z,75.91
2023-04-28T05:30:08.919Z,75.39
2023-04-28T05:31:09.121Z,75.91
2023-04-28T05:32:09.319Z,76.32
2023-04-28T05:33:09.039Z,76.22
2023-04-28T05:34:09.136Z,76.01
2023-04-28T05:35:08.802Z,76.12
2023-04-28T05:36:08.963Z,75.91
2023-04-28T05:37:09.122Z,76.08
2023-04-28T05:38:08.820Z,75.98
2023-04-28T05:39:08.983Z,75.77
2023-04-28T05:40:09.224Z,75.36
2023-04-28T05:41:08.841Z,75.01
2023-04-28T05:42:09.011Z,75.32
2023-04-28T05:43:09.169Z,75.01
2023-04-28T05:44:08.865Z,74.81
2023-04-28T05:45:09.063Z,74.40
2023-04-28T05:46:18.190Z,74.46
2023-04-28T05:47:09.950Z,74.46
2023-04-28T05:48:09.125Z,74.67
2023-04-28T05:49:08.775Z,73.95
2023-04-28T05:50:09.954Z,73.40
2023-04-28T05:51:08.652Z,73.91
2023-04-28T05:52:08.842Z,73.40
2023-04-28T05:53:09.003Z,73.30
2023-04-28T05:54:08.703Z,73.47
2023-04-28T05:55:07.028Z,73.57
2023-04-28T05:56:08.682Z,73.47
2023-04-28T05:57:08.843Z,72.85
2023-04-28T05:58:08.533Z,72.75
2023-04-28T05:59:08.734Z,72.30
2023-04-28T06:00:08.921Z,71.69
2023-04-28T06:01:08.592Z,71.69
2023-04-28T06:02:08.813Z,71.37
2023-04-28T06:03:08.057Z,71.14
2023-04-28T06:04:08.777Z,70.93
2023-04-28T06:05:08.974Z,70.83
2023-04-28T06:06:10.194Z,71.34
2023-04-28T06:07:08.682Z,71.00
2023-04-28T06:08:08.865Z,70.28
2023-04-28T06:09:08.577Z,70.38
2023-04-28T06:10:08.741Z,70.14
2023-04-28T06:11:09.430Z,69.94
2023-04-28T06:12:08.619Z,69.94
2023-04-28T06:13:08.781Z,69.01
2023-04-28T06:14:08.440Z,69.01
2023-04-28T06:15:08.626Z,68.77
2023-04-28T06:16:08.347Z,68.77
2023-04-28T06:17:08.505Z,68.98
2023-04-28T06:18:08.742Z,68.67
2023-04-28T06:19:08.383Z,68.33
2023-04-28T06:20:08.565Z,67.82
2023-04-28T06:21:08.251Z,67.82
2023-04-28T06:22:08.449Z,67.82
2023-04-28T06:23:08.645Z,68.10
2023-04-28T06:24:08.301Z,67.48
2023-04-28T06:25:08.502Z,66.76
2023-04-28T06:26:08.651Z,66.66
2023-04-28T06:27:08.282Z,66.83
2023-04-28T06:28:08.483Z,66.31
2023-04-28T06:29:08.133Z,66.11
2023-04-28T06:30:08.325Z,66.52
2023-04-28T06:31:08.515Z,67.21
2023-04-28T06:32:08.159Z,66.60
2023-04-28T06:33:08.326Z,66.90
2023-04-28T06:34:08.510Z,66.97
2023-04-28T06:35:08.174Z,66.46
2023-04-28T06:36:08.341Z,65.54
2023-04-28T06:37:07.997Z,65.33
2023-04-28T06:38:08.203Z,65.20
2023-04-28T06:39:08.356Z,64.59
2023-04-28T06:40:08.009Z,64.79
2023-04-28T06:41:06.443Z,65.10
2023-04-28T06:42:08.100Z,64.97
2023-04-28T06:43:08.254Z,63.84
2023-04-28T06:44:07.949Z,63.64
2023-04-28T06:45:08.146Z,63.64
2023-04-28T06:46:06.373Z,63.22
2023-04-28T06:47:08.086Z,63.20
2023-04-28T06:48:08.347Z,62.68
2023-04-28T06:49:07.918Z,63.09
2023-04-28T06:50:08.105Z,63.78
2023-04-28T06:51:06.294Z,63.57
2023-04-28T06:52:07.971Z,62.65
2023-04-28T06:53:08.100Z,61.83
2023-04-28T06:54:07.779Z,61.83
2023-04-28T06:55:07.944Z,62.04
2023-04-28T06:56:08.276Z,61.52
2023-04-28T06:57:07.789Z,60.99
2023-04-28T06:58:07.986Z,61.09
2023-04-28T06:59:08.142Z,60.06
2023-04-28T07:00:07.821Z,60.17
2023-04-28T07:01:08.106Z,59.55
2023-04-28T07:02:07.755Z,59.55
2023-04-28T07:03:08.044Z,60.17
2023-04-28T07:04:08.176Z,59.32
2023-04-28T07:05:07.710Z,59.94
2023-04-28T07:06:07.906Z,59.32
2023-04-28T07:07:08.059Z,58.70
2023-04-28T07:08:07.725Z,58.61
2023-04-28T07:09:08.159Z,59.01
2023-04-28T07:10:07.787Z,58.78
2023-04-28T07:11:07.960Z,57.97
2023-04-28T07:12:07.608Z,58.37
2023-04-28T07:13:07.793Z,58.89
2023-04-28T07:14:07.997Z,58.07
2023-04-28T07:15:10.007Z,57.66
2023-04-28T07:16:07.836Z,57.86
2023-04-28T07:17:07.521Z,57.25
2023-04-28T07:18:07.775Z,57.25
2023-04-28T07:19:07.863Z,57.93
2023-04-28T07:20:07.548Z,57.32
2023-04-28T07:21:07.724Z,57.43
2023-04-28T07:22:05.893Z,56.51
2023-04-28T07:23:07.561Z,56.61
2023-04-28T07:24:07.744Z,56.20
2023-04-28T07:25:07.398Z,56.71
2023-04-28T07:26:07.556Z,56.99
2023-04-28T07:27:05.833Z,56.89
2023-04-28T07:28:07.501Z,57.09
2023-04-28T07:29:07.758Z,56.79
2023-04-28T07:30:22.801Z,56.35
2023-04-28T07:31:08.522Z,55.63
2023-04-28T07:32:07.439Z,56.35
2023-04-28T07:33:07.534Z,55.33
2023-04-28T07:34:07.625Z,56.45
2023-04-28T07:35:07.281Z,56.15
2023-04-28T07:36:07.432Z,55.84
2023-04-28T07:37:05.977Z,54.82
2023-04-28T07:38:07.381Z,54.51
2023-04-28T07:39:07.553Z,55.02
2023-04-28T07:40:07.217Z,55.63
2023-04-28T07:41:08.834Z,55.51
2023-04-28T07:42:05.634Z,55.61
2023-04-28T07:43:07.280Z,55.71
2023-04-28T07:44:07.459Z,55.51
2023-04-28T07:45:08.110Z,56.32
2023-04-28T07:46:07.374Z,55.82
2023-04-28T07:47:06.540Z,55.69
2023-04-28T07:48:07.229Z,55.28
2023-04-28T07:49:07.377Z,55.07
2023-04-28T07:50:07.067Z,54.77
2023-04-28T07:51:07.253Z,54.57
2023-04-28T07:52:07.413Z,54.57
2023-04-28T07:53:07.069Z,54.77
2023-04-28T07:54:07.271Z,55.28
2023-04-28T07:55:06.988Z,54.57
2023-04-28T07:56:07.174Z,54.57
2023-04-28T07:57:07.365Z,53.96
2023-04-28T07:58:07.047Z,54.36
2023-04-28T07:59:07.229Z,54.24
2023-04-28T08:00:06.900Z,54.64
2023-04-28T08:01:07.204Z,54.64
2023-04-28T08:02:06.911Z,53.83
2023-04-28T08:03:07.227Z,54.44
2023-04-28T08:04:07.510Z,54.31
2023-04-28T08:05:07.031Z,54.31
2023-04-28T08:06:07.359Z,53.70
2023-04-28T08:07:07.181Z,54.31
2023-04-28T08:08:06.896Z,53.39
2023-04-28T08:09:07.052Z,53.59
2023-04-28T08:10:07.216Z,53.78
2023-04-28T08:11:06.889Z,54.39
2023-04-28T08:12:07.045Z,52.86
2023-04-28T08:13:05.211Z,53.06
2023-04-28T08:14:06.879Z,52.86
2023-04-28T08:15:07.079Z,52.45
2023-04-28T08:16:06.822Z,52.15
2023-04-28T08:17:06.929Z,52.76
2023-04-28T08:18:05.217Z,53.27
2023-04-28T08:19:06.885Z,54.36
2023-04-28T08:20:07.016Z,54.05
2023-04-28T08:21:06.708Z,52.53
2023-04-28T08:22:06.868Z,52.43
2023-04-28T08:23:05.075Z,52.43
2023-04-28T08:24:06.738Z,53.02
2023-04-28T08:25:06.886Z,53.22
2023-04-28T08:26:06.570Z,52.50
2023-04-28T08:27:06.747Z,53.02
2023-04-28T08:28:04.996Z,51.79
2023-04-28T08:29:06.669Z,52.37
2023-04-28T08:30:06.834Z,52.58
2023-04-28T08:31:06.522Z,52.48
2023-04-28T08:32:06.657Z,52.68
2023-04-28T08:33:06.243Z,51.95
2023-04-28T08:34:06.664Z,51.44
2023-04-28T08:35:06.845Z,51.84
2023-04-28T08:36:06.524Z,51.95
2023-04-28T08:37:06.725Z,50.52
2023-04-28T08:38:04.879Z,51.23
2023-04-28T08:39:06.531Z,50.90
2023-04-28T08:40:06.738Z,51.72
2023-04-28T08:41:06.400Z,50.81
2023-04-28T08:42:06.583Z,51.31
2023-04-28T08:43:05.717Z,49.89
2023-04-28T08:44:06.440Z,50.50
2023-04-28T08:45:06.603Z,49.79
2023-04-28T08:46:06.335Z,49.97
2023-04-28T08:47:06.482Z,50.37
2023-04-28T08:48:06.738Z,49.76
2023-04-28T08:49:06.348Z,50.17
2023-04-28T08:50:06.509Z,50.07
2023-04-28T08:51:06.692Z,49.76
2023-04-28T08:52:06.462Z,49.16
2023-04-28T08:53:06.508Z,49.54
2023-04-28T08:55:06.357Z,50.96
2023-04-28T08:56:06.542Z,48.83
2023-04-28T08:57:06.254Z,49.54
2023-04-28T08:58:06.456Z,48.72
2023-04-28T08:59:06.608Z,48.80
2023-04-28T09:00:06.272Z,48.19
2023-04-28T09:01:06.437Z,50.02
2023-04-28T09:02:06.210Z,48.71
2023-04-28T09:03:06.337Z,48.19
2023-04-28T09:04:06.761Z,48.71
2023-04-28T09:05:06.268Z,49.21
2023-04-28T09:06:06.372Z,49.11
2023-04-28T09:07:06.459Z,48.10
2023-04-28T09:08:06.123Z,49.21
2023-04-28T09:09:06.282Z,49.39
2023-04-28T09:10:05.959Z,48.19
2023-04-28T09:11:06.133Z,48.91
2023-04-28T09:12:06.407Z,49.08
2023-04-28T09:13:05.998Z,47.89
2023-04-28T09:14:06.183Z,48.60
2023-04-28T09:15:06.363Z,48.88
2023-04-28T09:16:06.083Z,48.27
2023-04-28T09:17:11.484Z,48.58
2023-04-28T09:18:06.249Z,48.88
2023-04-28T09:19:06.330Z,48.55
2023-04-28T09:20:06.020Z,49.16
2023-04-28T09:21:06.187Z,48.46
2023-04-28T09:22:24.125Z,48.46
2023-04-28T09:23:07.088Z,48.83
2023-04-28T09:24:06.256Z,47.02
2023-04-28T09:25:05.913Z,48.03
2023-04-28T09:26:06.084Z,48.33
2023-04-28T09:27:05.775Z,48.63
2023-04-28T09:28:06.011Z,47.72
2023-04-28T09:29:06.180Z,47.30
2023-04-28T09:30:05.861Z,47.50
2023-04-28T09:31:06.041Z,48.11
2023-04-28T09:32:05.747Z,47.78
2023-04-28T09:33:05.914Z,47.09
2023-04-28T09:34:06.034Z,47.19
2023-04-28T09:35:05.707Z,47.09
2023-04-28T09:36:05.853Z,46.59
2023-04-28T09:37:06.030Z,46.59
2023-04-28T09:38:05.696Z,47.09
2023-04-28T09:39:05.872Z,47.90
2023-04-28T09:40:06.101Z,47.78
2023-04-28T09:41:05.781Z,47.88
2023-04-28T09:42:05.957Z,46.38
2023-04-28T09:43:18.690Z,46.97
2023-04-28T09:44:06.813Z,46.16
2023-04-28T09:45:06.022Z,47.38
2023-04-28T09:46:05.760Z,46.67
2023-04-28T09:47:05.841Z,46.54
2023-04-28T09:48:05.530Z,46.64
2023-04-28T09:49:05.669Z,46.04
2023-04-28T09:50:05.841Z,45.75
2023-04-28T09:51:05.527Z,46.67
2023-04-28T09:52:05.693Z,47.25
2023-04-28T09:53:05.894Z,47.55
2023-04-28T09:54:05.554Z,47.75
2023-04-28T09:55:05.742Z,46.54
2023-04-28T09:56:05.469Z,47.15
2023-04-28T09:57:05.688Z,45.94
2023-04-28T09:58:05.769Z,46.84
2023-04-28T09:59:05.458Z,46.44
2023-04-28T10:00:05.634Z,47.03
2023-04-28T10:01:05.303Z,47.13
2023-04-28T10:02:17.407Z,47.13
2023-04-28T10:03:06.709Z,47.51
2023-04-28T10:04:05.383Z,45.99
2023-04-28T10:05:05.624Z,45.99
2023-04-28T10:06:05.655Z,45.59
2023-04-28T10:07:05.368Z,46.40
2023-04-28T10:08:05.516Z,46.20
2023-04-28T10:09:05.242Z,45.18
2023-04-28T10:10:05.627Z,45.57
2023-04-28T10:11:05.596Z,45.18
2023-04-28T10:12:05.297Z,46.40
2023-04-28T10:13:05.468Z,46.60
2023-04-28T10:14:05.146Z,46.28
2023-04-28T10:15:05.326Z,46.28
2023-04-28T10:16:05.523Z,46.48
2023-04-28T10:17:05.159Z,44.86
2023-04-28T10:18:05.374Z,45.97
2023-04-28T10:19:03.533Z,45.37
2023-04-28T10:20:05.382Z,46.45
2023-04-28T10:21:05.390Z,45.95
2023-04-28T10:22:05.074Z,46.45
2023-04-28T10:23:05.238Z,45.75
2023-04-28T10:24:05.413Z,46.03
2023-04-28T10:25:05.093Z,46.03
2023-04-28T10:26:05.280Z,45.73
2023-04-28T10:27:05.473Z,44.62
2023-04-28T10:28:05.128Z,45.70
2023-04-28T10:29:05.299Z,44.39
2023-04-28T10:30:08.315Z,44.90
2023-04-28T10:31:06.192Z,45.30
2023-04-28T10:32:05.352Z,45.78
2023-04-28T10:33:05.102Z,45.78
2023-04-28T10:34:05.204Z,45.26
2023-04-28T10:35:04.897Z,43.57
2023-04-28T10:36:05.084Z,44.07
2023-04-28T10:37:05.237Z,44.27
2023-04-28T10:38:04.896Z,44.78
2023-04-28T10:39:05.075Z,44.27
2023-04-28T10:40:06.740Z,44.78
2023-04-28T10:41:04.986Z,45.18
2023-04-28T10:42:05.166Z,45.28
2023-04-28T10:43:04.861Z,44.47
2023-04-28T10:44:05.038Z,44.67
2023-04-28T10:45:05.231Z,44.15
2023-04-28T10:46:04.917Z,44.15
2023-04-28T10:47:05.039Z,43.74
2023-04-28T10:48:04.770Z,44.65
2023-04-28T10:49:04.884Z,45.36
2023-04-28T10:50:04.037Z,44.55
2023-04-28T10:51:04.715Z,43.85
2023-04-28T10:52:04.875Z,44.05
2023-04-28T10:53:05.078Z,45.06
2023-04-28T10:54:04.754Z,44.45
2023-04-28T10:55:15.831Z,43.65
2023-04-28T10:56:06.055Z,43.74
2023-04-28T10:57:04.746Z,43.93
2023-04-28T10:58:04.936Z,43.42
2023-04-28T10:59:04.594Z,43.93
2023-04-28T11:00:04.843Z,44.23
2023-04-28T11:01:04.964Z,43.71
2023-04-28T11:02:04.807Z,43.00
2023-04-28T11:03:04.953Z,44.61
2023-04-28T11:04:05.060Z,43.30
2023-04-28T11:05:04.781Z,44.71
2023-04-28T11:06:04.805Z,45.32
2023-04-28T11:07:04.490Z,44.31
2023-04-28T11:08:04.684Z,44.01
2023-04-28T11:09:04.867Z,44.59
2023-04-28T11:10:04.514Z,44.09
2023-04-28T11:11:04.681Z,43.08
2023-04-28T11:12:04.872Z,42.98
2023-04-28T11:13:04.523Z,43.28
2023-04-28T11:14:04.677Z,42.80
2023-04-28T11:15:04.419Z,43.71
2023-04-28T11:16:04.579Z,43.80
2023-04-28T11:17:04.724Z,43.60
2023-04-28T11:18:04.482Z,44.29
2023-04-28T11:19:04.698Z,43.88
2023-04-28T11:20:04.716Z,43.48
2023-04-28T11:21:04.403Z,44.49
2023-04-28T11:22:04.580Z,43.96
2023-04-28T11:23:04.260Z,44.37
2023-04-28T11:24:04.420Z,43.04
2023-04-28T11:25:04.593Z,43.84
2023-04-28T11:26:02.681Z,41.93
2023-04-28T11:27:04.369Z,42.64
2023-04-28T11:28:04.546Z,42.61
2023-04-28T11:29:04.214Z,42.41
2023-04-28T11:30:04.384Z,42.01
2023-04-28T11:31:02.608Z,42.21
2023-04-28T11:32:04.367Z,41.99
2023-04-28T11:33:04.444Z,42.10
2023-04-28T11:34:04.218Z,41.89
2023-04-28T11:35:04.438Z,42.90
2023-04-28T11:36:02.529Z,41.89
2023-04-28T11:37:04.190Z,42.60
2023-04-28T11:38:04.392Z,42.90
2023-04-28T11:39:04.058Z,41.99
2023-04-28T11:40:04.234Z,41.79
2023-04-28T11:41:04.409Z,42.19
2023-04-28T11:42:04.034Z,41.49
2023-04-28T11:43:04.231Z,41.49
2023-04-28T11:44:04.368Z,41.89
2023-04-28T11:45:04.050Z,41.49
2023-04-28T11:46:04.213Z,42.30
2023-04-28T11:47:04.678Z,43.00
2023-04-28T11:48:04.088Z,43.40
2023-04-28T11:49:04.226Z,42.18
2023-04-28T11:50:04.933Z,42.47
2023-04-28T11:51:04.069Z,41.47
2023-04-28T11:52:04.263Z,41.77
2023-04-28T11:53:03.947Z,43.18
2023-04-28T11:54:04.098Z,42.38
2023-04-28T11:55:04.334Z,42.07
2023-04-28T11:56:03.931Z,41.25
2023-04-28T11:57:04.218Z,42.25
2023-04-28T11:58:03.807Z,42.05
2023-04-28T11:59:04.170Z,42.25
2023-04-28T12:00:04.185Z,42.54
2023-04-28T12:01:03.868Z,42.35
2023-04-28T12:02:04.081Z,40.75
2023-04-28T12:03:03.827Z,41.55
2023-04-28T12:04:04.013Z,41.45
2023-04-28T12:05:04.112Z,41.75
2023-04-28T12:06:04.302Z,41.55
2023-04-28T12:07:03.838Z,42.35
2023-04-28T12:08:04.042Z,42.16
2023-04-28T12:09:03.718Z,42.35
2023-04-28T12:10:03.904Z,41.96
2023-04-28T12:11:04.105Z,42.16
2023-04-28T12:12:03.695Z,42.55
2023-04-28T12:13:03.845Z,42.35
2023-04-28T12:14:04.008Z,41.87
2023-04-28T12:15:03.704Z,42.47
2023-04-28T12:16:03.950Z,42.78
2023-04-28T12:17:03.550Z,41.67
2023-04-28T12:18:03.777Z,42.47
2023-04-28T12:19:03.895Z,42.97
2023-04-28T12:20:03.562Z,42.88
2023-04-28T12:21:03.746Z,42.38
2023-04-28T12:22:01.991Z,41.97
2023-04-28T12:23:03.618Z,42.27
2023-04-28T12:24:03.793Z,42.66
2023-04-28T12:25:03.470Z,42.76
2023-04-28T12:26:03.702Z,43.36
2023-04-28T12:27:01.881Z,41.45
2023-04-28T12:28:03.529Z,41.96
2023-04-28T12:29:03.711Z,42.76
2023-04-28T12:30:03.388Z,43.66
2023-04-28T12:31:03.611Z,42.76
2023-04-28T12:32:02.740Z,43.34
2023-04-28T12:33:03.448Z,44.14
2023-04-28T12:34:03.595Z,42.13
2023-04-28T12:35:03.785Z,42.46
2023-04-28T12:36:03.427Z,42.66
2023-04-28T12:37:04.085Z,43.46
2023-04-28T12:38:03.244Z,42.25
2023-04-28T12:39:03.410Z,42.55
2023-04-28T12:40:03.594Z,41.65
2023-04-28T12:41:03.261Z,42.66
2023-04-28T12:42:04.456Z,42.44
2023-04-28T12:43:03.623Z,41.33
2023-04-28T12:44:03.312Z,42.74
2023-04-28T12:45:03.488Z,43.36
2023-04-28T12:46:03.349Z,42.76
2023-04-28T12:47:03.514Z,43.26
2023-04-28T12:48:03.201Z,41.65
2023-04-28T12:49:03.349Z,42.76
2023-04-28T12:50:03.510Z,42.66
2023-04-28T12:51:03.225Z,43.46
2023-04-28T12:52:03.364Z,43.76
2023-04-28T12:53:03.066Z,42.96